createdAt,value
2018-05-25T00:00:54.187Z,84.89
2018-05-25T00:03:57.436Z,85.04
2018-05-25T00:07:01.471Z,85.02
2018-05-25T00:10:05.606Z,85.33
2018-05-25T00:13:09.646Z,85.31
2018-05-25T00:16:12.914Z,84.96
2018-05-25T00:19:16.926Z,85.53
2018-05-25T00:22:20.948Z,85.03
2018-05-25T00:25:24.208Z,84.93
2018-05-25T00:28:27.476Z,84.80
2018-05-25T00:31:30.729Z,84.71
2018-05-25T00:34:34.790Z,85.07
2018-05-25T00:37:38.051Z,85.23
2018-05-25T00:40:42.079Z,85.07
2018-05-25T00:43:45.338Z,85.27
2018-05-25T00:46:48.597Z,87.15
2018-05-25T00:49:51.954Z,86.30
2018-05-25T00:52:56.070Z,85.59
2018-05-25T00:56:00.106Z,85.64
2018-05-25T00:59:03.358Z,85.83
2018-05-25T01:02:06.677Z,85.61
2018-05-25T01:05:10.695Z,85.61
2018-05-25T01:08:14.737Z,86.42
2018-05-25T01:11:18.284Z,85.75
2018-05-25T01:14:21.537Z,85.58
2018-05-25T01:17:24.797Z,85.13
2018-05-25T01:20:28.831Z,85.51
2018-05-25T01:23:32.638Z,85.82
2018-05-25T01:26:37.147Z,86.46
2018-05-25T01:29:41.158Z,86.55
2018-05-25T01:32:45.188Z,87.01
2018-05-25T01:35:48.460Z,86.30
2018-05-25T01:38:51.716Z,86.14
2018-05-25T01:41:54.979Z,85.67
2018-05-25T01:44:58.994Z,85.90
2018-05-25T01:48:03.022Z,86.09
2018-05-25T01:51:06.505Z,86.28
2018-05-25T01:54:10.565Z,86.21
2018-05-25T01:57:13.849Z,86.07
2018-05-25T02:00:17.100Z,86.08
2018-05-25T02:03:20.358Z,86.10
2018-05-25T02:06:23.623Z,86.46
2018-05-25T02:09:26.922Z,86.55
2018-05-25T02:12:30.191Z,86.50
2018-05-25T02:15:33.509Z,86.45
2018-05-25T02:18:37.608Z,87.00
2018-05-25T02:21:40.893Z,87.43
2018-05-25T02:24:44.146Z,86.71
2018-05-25T02:27:47.414Z,86.30
2018-05-25T02:30:51.437Z,86.72
2018-05-25T02:33:54.690Z,86.75
2018-05-25T02:36:58.035Z,86.87
2018-05-25T02:40:01.318Z,86.66
2018-05-25T02:43:05.445Z,86.28
2018-05-25T02:46:08.707Z,86.17
2018-05-25T02:49:11.976Z,85.99
2018-05-25T02:52:15.342Z,86.11
2018-05-25T02:55:18.597Z,86.09
2018-05-25T02:58:21.906Z,86.50
2018-05-25T03:01:25.234Z,86.41
2018-05-25T03:04:28.581Z,86.00
2018-05-25T03:07:31.859Z,86.15
2018-05-25T03:10:35.118Z,86.31
2018-05-25T03:13:39.235Z,86.01
2018-05-25T03:16:43.261Z,86.30
2018-05-25T03:19:46.535Z,87.75
2018-05-25T03:22:50.566Z,87.50
2018-05-25T03:25:53.823Z,86.60
2018-05-25T03:28:57.161Z,86.94
2018-05-25T03:32:01.297Z,86.90
2018-05-25T03:35:04.559Z,86.64
2018-05-25T03:38:08.587Z,86.55
2018-05-25T03:41:12.601Z,86.55
2018-05-25T03:44:15.891Z,87.62
2018-05-25T03:47:19.179Z,88.09
2018-05-25T03:50:23.210Z,87.09
2018-05-25T03:53:27.566Z,86.54
2018-05-25T03:56:30.844Z,86.41
2018-05-25T03:59:52.745Z,86.48
2018-05-25T04:02:56.017Z,86.51
2018-05-25T04:05:59.271Z,86.22
2018-05-25T04:09:03.345Z,85.60
2018-05-25T04:12:06.702Z,85.63
2018-05-25T04:15:09.952Z,87.04
2018-05-25T04:18:13.210Z,87.67
2018-05-25T04:21:16.591Z,87.00
2018-05-25T04:24:20.064Z,86.57
2018-05-25T04:27:24.083Z,85.70
2018-05-25T04:30:28.107Z,85.94
2018-05-25T04:33:31.861Z,85.51
2018-05-25T04:36:35.202Z,85.07
2018-05-25T04:39:39.318Z,84.87
2018-05-25T04:42:43.346Z,84.78
2018-05-25T04:45:46.630Z,84.21
2018-05-25T04:48:50.660Z,84.09
2018-05-25T04:51:53.914Z,84.50
2018-05-25T04:54:57.205Z,83.72
2018-05-25T04:58:00.473Z,83.34
2018-05-25T05:01:03.767Z,83.15
2018-05-25T05:04:07.033Z,82.91
2018-05-25T05:07:11.064Z,84.26
2018-05-25T05:10:14.353Z,84.27
2018-05-25T05:13:17.625Z,83.96
2018-05-25T05:16:21.755Z,84.08
2018-05-25T05:19:25.829Z,83.77
2018-05-25T05:22:29.257Z,83.19
2018-05-25T05:25:32.966Z,83.52
2018-05-25T05:28:37.002Z,82.96
2018-05-25T05:31:40.261Z,83.33
2018-05-25T05:34:43.522Z,83.40
2018-05-25T05:37:46.785Z,84.06
2018-05-25T05:40:50.927Z,83.30
2018-05-25T05:43:54.191Z,82.50
2018-05-25T05:46:57.810Z,80.93
2018-05-25T05:50:01.827Z,78.38
2018-05-25T05:53:05.079Z,72.67
2018-05-25T05:56:08.350Z,67.36
2018-05-25T05:59:11.912Z,63.81
2018-05-25T06:02:15.941Z,60.85
2018-05-25T06:05:19.211Z,57.87
2018-05-25T06:08:22.463Z,56.55
2018-05-25T06:11:25.727Z,56.37
2018-05-25T06:14:29.880Z,55.79
2018-05-25T06:17:33.243Z,57.87
2018-05-25T06:20:36.507Z,57.59
2018-05-25T06:23:39.773Z,57.24
2018-05-25T06:26:43.043Z,55.78
2018-05-25T06:29:46.311Z,56.26
2018-05-25T06:32:49.722Z,56.17
2018-05-25T06:35:54.052Z,56.76
2018-05-25T06:38:58.076Z,57.57
2018-05-25T06:42:01.339Z,58.99
2018-05-25T06:45:04.663Z,57.47
2018-05-25T06:48:08.781Z,55.85
2018-05-25T06:51:12.103Z,54.89
2018-05-25T06:54:15.468Z,53.46
2018-05-25T06:57:19.494Z,56.16
2018-05-25T07:00:22.788Z,54.91
2018-05-25T07:03:26.106Z,54.86
2018-05-25T07:06:29.455Z,55.31
2018-05-25T07:09:32.794Z,57.11
2018-05-25T07:12:36.083Z,54.66
2018-05-25T07:15:39.379Z,53.57
2018-05-25T07:18:43.394Z,55.85
2018-05-25T07:21:46.693Z,54.71
2018-05-25T07:24:49.949Z,55.50
2018-05-25T07:27:53.210Z,57.01
2018-05-25T07:30:56.481Z,54.98
2018-05-25T07:34:00.495Z,55.60
2018-05-25T07:37:04.518Z,54.27
2018-05-25T07:40:07.780Z,57.95
2018-05-25T07:43:11.030Z,55.81
2018-05-25T07:46:14.425Z,55.64
2018-05-25T07:49:17.812Z,54.75
2018-05-25T07:52:21.065Z,58.93
2018-05-25T07:55:24.402Z,58.21
2018-05-25T07:58:28.430Z,51.28
2018-05-25T08:01:31.714Z,55.49
2018-05-25T08:04:35.007Z,54.36
2018-05-25T08:07:39.118Z,52.16
2018-05-25T08:10:43.147Z,56.05
2018-05-25T08:13:46.398Z,54.90
2018-05-25T08:16:49.660Z,55.56
2018-05-25T08:19:52.923Z,54.72
2018-05-25T08:22:56.941Z,51.64
2018-05-25T08:26:00.247Z,56.37
2018-05-25T08:29:03.496Z,56.49
2018-05-25T08:32:07.179Z,52.90
2018-05-25T08:35:10.440Z,52.20
2018-05-25T08:38:13.739Z,51.73
2018-05-25T08:41:17.854Z,51.11
2018-05-25T08:44:21.882Z,48.94
2018-05-25T08:47:25.202Z,51.30
2018-05-25T08:50:28.698Z,49.12
2018-05-25T08:53:32.181Z,51.22
2018-05-25T08:56:35.441Z,51.63
2018-05-25T08:59:38.695Z,52.10
2018-05-25T09:02:41.954Z,53.38
2018-05-25T09:05:45.992Z,52.12
2018-05-25T09:08:49.238Z,49.41
2018-05-25T09:11:52.502Z,52.74
2018-05-25T09:14:55.774Z,53.45
2018-05-25T09:17:59.030Z,52.24
2018-05-25T09:21:02.434Z,52.95
2018-05-25T09:24:05.777Z,50.72
2018-05-25T09:27:09.039Z,50.93
2018-05-25T09:30:13.067Z,52.09
2018-05-25T09:33:17.094Z,51.40
2018-05-25T09:36:20.413Z,52.27
2018-05-25T09:39:23.619Z,48.34
2018-05-25T09:42:27.003Z,48.37
2018-05-25T09:45:30.369Z,49.59
2018-05-25T09:48:34.386Z,54.77
2018-05-25T09:51:38.409Z,49.91
2018-05-25T09:54:41.670Z,51.49
2018-05-25T09:57:57.707Z,49.15
2018-05-25T10:01:00.966Z,47.71
2018-05-25T10:04:04.294Z,47.43
2018-05-25T10:07:08.318Z,48.72
2018-05-25T10:10:11.567Z,47.05
2018-05-25T10:13:14.979Z,47.72
2018-05-25T10:16:18.230Z,48.58
2018-05-25T10:19:21.481Z,50.04
2018-05-25T10:22:24.738Z,48.68
2018-05-25T10:25:28.090Z,48.34
2018-05-25T10:28:32.221Z,51.08
2018-05-25T10:31:35.477Z,50.39
2018-05-25T10:34:38.808Z,48.22
2018-05-25T10:37:42.110Z,45.48
2018-05-25T10:40:46.189Z,46.78
2018-05-25T10:43:49.445Z,49.85
2018-05-25T10:46:52.841Z,46.71
2018-05-25T10:49:56.105Z,46.42
2018-05-25T10:53:00.229Z,49.97
2018-05-25T10:56:04.254Z,47.68
2018-05-25T10:59:07.518Z,47.51
2018-05-25T11:02:10.773Z,44.12
2018-05-25T11:05:14.034Z,45.28
2018-05-25T11:08:18.071Z,43.55
2018-05-25T11:11:21.329Z,42.83
2018-05-25T11:14:25.348Z,48.42
2018-05-25T11:17:29.402Z,47.87
2018-05-25T11:20:33.910Z,47.43
2018-05-25T11:23:37.309Z,48.64
2018-05-25T11:26:41.338Z,47.03
2018-05-25T11:29:44.603Z,45.06
2018-05-25T11:32:48.647Z,43.78
2018-05-25T11:35:51.947Z,45.09
2018-05-25T11:38:55.211Z,47.65
2018-05-25T11:41:59.250Z,46.69
2018-05-25T11:45:02.519Z,48.18
2018-05-25T11:48:05.786Z,47.82
2018-05-25T11:51:09.057Z,46.88
2018-05-25T11:54:12.338Z,42.83
2018-05-25T11:57:15.648Z,46.53
2018-05-25T12:00:19.423Z,45.21
2018-05-25T12:03:22.711Z,46.93
2018-05-25T12:06:25.970Z,48.07
2018-05-25T12:09:29.991Z,51.15
2018-05-25T12:12:33.272Z,46.73
2018-05-25T12:15:36.533Z,46.02
2018-05-25T12:18:40.565Z,45.75
2018-05-25T12:21:43.861Z,47.12
2018-05-25T12:24:47.132Z,44.97
2018-05-25T12:27:51.784Z,45.12
2018-05-25T12:30:55.051Z,44.23
2018-05-25T12:33:58.305Z,49.55
2018-05-25T12:37:01.582Z,45.65
2018-05-25T12:40:04.830Z,47.20
2018-05-25T12:43:08.097Z,48.53
2018-05-25T12:46:11.522Z,48.39
2018-05-25T12:49:14.786Z,46.34
2018-05-25T12:52:18.048Z,47.96
2018-05-25T12:55:22.198Z,49.72
2018-05-25T12:58:25.645Z,49.03
2018-05-25T13:01:29.728Z,49.78
2018-05-25T13:04:33.316Z,49.40
2018-05-25T13:07:36.694Z,48.76
2018-05-25T13:10:40.816Z,44.99
2018-05-25T13:13:45.124Z,46.63
2018-05-25T13:16:49.182Z,44.35
2018-05-25T13:19:52.455Z,46.14
2018-05-25T13:22:55.807Z,46.64
2018-05-25T13:25:59.082Z,46.15
2018-05-25T13:29:02.409Z,47.18
2018-05-25T13:32:05.778Z,46.26
2018-05-25T13:35:09.071Z,46.33
2018-05-25T13:38:12.396Z,44.52
2018-05-25T13:41:15.750Z,44.03
2018-05-25T13:44:19.130Z,48.90
2018-05-25T13:47:24.142Z,45.95
2018-05-25T13:50:27.488Z,47.98
2018-05-25T13:53:31.032Z,47.27
2018-05-25T13:56:34.398Z,45.24
2018-05-25T13:59:37.657Z,45.46
2018-05-25T14:02:41.694Z,43.46
2018-05-25T14:05:45.018Z,41.66
2018-05-25T14:08:48.320Z,43.58
2018-05-25T14:11:51.859Z,42.11
2018-05-25T14:14:55.427Z,44.96
2018-05-25T14:17:59.542Z,45.04
2018-05-25T14:21:02.811Z,47.12
2018-05-25T14:24:06.204Z,42.41
2018-05-25T14:27:10.234Z,44.00
2018-05-25T14:30:13.521Z,42.94
2018-05-25T14:33:18.174Z,44.06
2018-05-25T14:36:21.692Z,45.67
2018-05-25T14:39:25.782Z,46.17
2018-05-25T14:42:49.821Z,46.24
2018-05-25T14:45:54.843Z,45.59
2018-05-25T14:48:58.118Z,45.84
2018-05-25T14:52:02.438Z,45.76
2018-05-25T14:55:05.734Z,43.63
2018-05-25T14:58:09.007Z,44.41
2018-05-25T15:01:13.227Z,43.05
2018-05-25T15:04:16.537Z,44.58
2018-05-25T15:07:19.815Z,45.90
2018-05-25T15:10:24.651Z,45.26
2018-05-25T15:13:27.931Z,46.02
2018-05-25T15:16:31.315Z,45.17
2018-05-25T15:19:34.588Z,46.43
2018-05-25T15:22:37.848Z,47.76
2018-05-25T15:25:41.247Z,52.11
2018-05-25T15:28:45.709Z,53.44
2018-05-25T15:31:49.001Z,55.20
2018-05-25T15:34:53.238Z,55.67
2018-05-25T15:37:56.516Z,55.83
2018-05-25T15:40:59.795Z,56.21
2018-05-25T15:44:03.064Z,55.91
2018-05-25T15:47:07.117Z,56.11
2018-05-25T15:50:10.671Z,57.22
2018-05-25T15:53:14.406Z,56.78
2018-05-25T15:56:17.781Z,56.74
2018-05-25T15:59:21.025Z,56.88
2018-05-25T16:02:24.419Z,56.49
2018-05-25T16:05:53.039Z,57.36
2018-05-25T16:08:56.998Z,57.04
2018-05-25T16:12:01.189Z,57.02
2018-05-25T16:15:04.582Z,55.90
2018-05-25T16:18:07.874Z,57.61
2018-05-25T16:21:11.141Z,56.37
2018-05-25T16:24:14.403Z,56.46
2018-05-25T16:27:18.426Z,56.30
2018-05-25T16:30:22.498Z,58.35
2018-05-25T16:33:25.775Z,57.40
2018-05-25T16:36:29.092Z,57.61
2018-05-25T16:39:32.385Z,56.96
2018-05-25T16:42:36.481Z,55.62
2018-05-25T16:45:39.779Z,51.86
2018-05-25T16:48:43.263Z,48.91
2018-05-25T16:51:46.712Z,48.49
2018-05-25T16:54:50.774Z,48.91
2018-05-25T16:57:54.123Z,47.36
2018-05-25T17:00:57.410Z,49.58
2018-05-25T17:04:01.823Z,51.38
2018-05-25T17:07:05.079Z,52.58
2018-05-25T17:10:09.105Z,51.17
2018-05-25T17:13:13.134Z,51.81
2018-05-25T17:16:16.471Z,53.67
2018-05-25T17:19:20.534Z,53.97
2018-05-25T17:22:24.613Z,55.13
2018-05-25T17:25:27.870Z,55.83
2018-05-25T17:28:31.206Z,57.04
2018-05-25T17:31:34.465Z,57.00
2018-05-25T17:34:37.740Z,57.33
2018-05-25T17:37:41.771Z,58.01
2018-05-25T17:40:45.052Z,60.57
2018-05-25T17:43:48.400Z,60.54
2018-05-25T17:46:51.690Z,62.13
2018-05-25T17:49:54.948Z,62.56
2018-05-25T17:52:59.090Z,62.35
2018-05-25T17:56:02.365Z,63.05
2018-05-25T17:59:05.654Z,61.88
2018-05-25T18:02:09.688Z,61.19
2018-05-25T18:05:12.962Z,61.56
2018-05-25T18:08:17.100Z,62.70
2018-05-25T18:11:20.385Z,61.54
2018-05-25T18:14:24.497Z,62.16
2018-05-25T18:17:28.726Z,63.22
2018-05-25T18:20:34.063Z,62.98
2018-05-25T18:23:38.213Z,63.24
2018-05-25T18:26:41.483Z,64.53
2018-05-25T18:29:44.770Z,65.00
2018-05-25T18:32:48.834Z,64.83
2018-05-25T18:35:52.155Z,65.00
2018-05-25T18:38:55.414Z,64.80
2018-05-25T18:41:58.687Z,64.59
2018-05-25T18:45:02.149Z,64.88
2018-05-25T18:48:06.176Z,65.76
2018-05-25T18:51:09.537Z,68.14
2018-05-25T18:54:30.726Z,70.20
2018-05-25T18:57:34.351Z,69.54
2018-05-25T19:00:37.641Z,68.99
2018-05-25T19:03:40.923Z,68.81
2018-05-25T19:06:44.179Z,69.53
2018-05-25T19:09:47.441Z,68.63
2018-05-25T19:12:50.716Z,68.66
2018-05-25T19:15:54.031Z,69.16
2018-05-25T19:18:57.346Z,69.38
2018-05-25T19:22:00.597Z,70.16
2018-05-25T19:25:04.637Z,69.61
2018-05-25T19:28:07.916Z,69.68
2018-05-25T19:31:11.956Z,70.14
2018-05-25T19:34:15.311Z,70.28
2018-05-25T19:37:18.651Z,70.83
2018-05-25T19:40:21.934Z,71.31
2018-05-25T19:43:25.963Z,71.43
2018-05-25T19:46:29.235Z,73.21
2018-05-25T19:49:33.264Z,72.94
2018-05-25T19:52:36.553Z,72.65
2018-05-25T19:55:39.871Z,73.65
2018-05-25T19:58:43.182Z,73.76
2018-05-25T20:01:46.488Z,73.67
2018-05-25T20:04:49.752Z,73.80
2018-05-25T20:07:53.777Z,73.89
2018-05-25T20:10:57.052Z,74.78
2018-05-25T20:14:01.074Z,75.16
2018-05-25T20:17:05.356Z,75.39
2018-05-25T20:20:08.665Z,75.61
2018-05-25T20:23:12.030Z,75.49
2018-05-25T20:26:15.348Z,75.39
2018-05-25T20:29:18.677Z,75.72
2018-05-25T20:32:22.712Z,75.87
2018-05-25T20:35:26.114Z,76.74
2018-05-25T20:38:29.377Z,76.36
2018-05-25T20:41:32.690Z,75.99
2018-05-25T20:44:36.707Z,76.43
2018-05-25T20:47:40.112Z,75.81
2018-05-25T20:50:44.139Z,76.22
2018-05-25T20:53:47.438Z,77.06
2018-05-25T20:56:50.753Z,77.16
2018-05-25T20:59:54.124Z,77.68
2018-05-25T21:02:58.269Z,76.98
2018-05-25T21:06:02.288Z,77.43
2018-05-25T21:09:06.493Z,77.05
2018-05-25T21:12:09.792Z,77.56
2018-05-25T21:15:13.057Z,77.70
2018-05-25T21:18:17.410Z,77.54
2018-05-25T21:21:24.658Z,77.61
2018-05-25T21:24:27.975Z,77.65
2018-05-25T21:27:34.665Z,77.74
2018-05-25T21:30:38.058Z,78.10
2018-05-25T21:33:41.415Z,78.23
2018-05-25T21:36:45.077Z,78.43
2018-05-25T21:39:49.312Z,78.53
2018-05-25T21:42:53.414Z,79.16
2018-05-25T21:45:56.712Z,78.49
2018-05-25T21:49:00.330Z,79.28
2018-05-25T21:52:03.638Z,79.39
2018-05-25T21:55:07.607Z,79.46
2018-05-25T21:58:10.876Z,79.04
2018-05-25T22:01:14.137Z,79.07
2018-05-25T22:04:18.155Z,79.62
2018-05-25T22:07:22.217Z,79.60
2018-05-25T22:10:25.479Z,79.95
2018-05-25T22:13:29.523Z,80.46
2018-05-25T22:16:32.833Z,80.10
2018-05-25T22:19:36.091Z,79.77
2018-05-25T22:22:40.242Z,79.75
2018-05-25T22:25:43.506Z,79.78
2018-05-25T22:28:46.769Z,80.07
2018-05-25T22:31:50.086Z,80.06
2018-05-25T22:34:55.055Z,79.96
2018-05-25T22:37:58.317Z,80.16
2018-05-25T22:41:02.350Z,80.22
2018-05-25T22:44:23.378Z,80.40
2018-05-25T22:47:44.362Z,80.49
2018-05-25T22:51:06.025Z,80.73
2018-05-25T22:54:14.869Z,80.35
2018-05-25T22:57:18.167Z,79.97
2018-05-25T23:00:21.423Z,80.45
2018-05-25T23:03:24.682Z,80.61
2018-05-25T23:06:27.958Z,80.57
2018-05-25T23:09:31.217Z,80.81
2018-05-25T23:12:34.479Z,80.19
2018-05-25T23:15:37.755Z,80.47
2018-05-25T23:18:41.042Z,80.56
2018-05-25T23:21:44.285Z,80.53
2018-05-25T23:24:48.300Z,80.67
2018-05-25T23:27:52.401Z,80.67
2018-05-25T23:30:56.457Z,80.75
2018-05-25T23:33:59.727Z,81.14
2018-05-25T23:37:03.792Z,81.34
2018-05-25T23:40:07.047Z,80.95
2018-05-25T23:43:11.069Z,81.03
2018-05-25T23:46:15.098Z,80.63
2018-05-25T23:49:18.353Z,80.54
2018-05-25T23:52:21.611Z,80.79
2018-05-25T23:55:24.861Z,80.59
2018-05-25T23:58:28.887Z,81.26
